createdAt,value
2016-11-11T00:00:41.847Z,2.84
2016-11-11T00:01:26.911Z,2.93
2016-11-11T00:02:26.932Z,2.84
2016-11-11T00:03:26.948Z,2.89
2016-11-11T00:04:26.964Z,2.9
2016-11-11T00:05:26.980Z,2.93
2016-11-11T00:06:26.995Z,2.89
2016-11-11T00:07:27.012Z,2.97
2016-11-11T00:09:27.049Z,2.92
2016-11-11T00:10:41.975Z,2.89
2016-11-11T00:11:27.076Z,2.89
2016-11-11T00:12:27.098Z,2.9
2016-11-11T00:13:27.107Z,2.85
2016-11-11T00:14:27.124Z,2.79
2016-11-11T00:15:42.058Z,2.74
2016-11-11T00:16:42.073Z,2.82
2016-11-11T00:17:27.177Z,2.79
2016-11-11T00:18:27.191Z,2.82
2016-11-11T00:19:27.212Z,2.82
2016-11-11T00:20:27.229Z,2.82
2016-11-11T00:21:27.245Z,2.82
2016-11-11T00:22:27.254Z,2.82
2016-11-11T00:23:27.271Z,2.84
2016-11-11T00:24:27.289Z,2.79
2016-11-11T00:25:27.305Z,2.75
2016-11-11T00:26:42.236Z,2.77
2016-11-11T00:27:27.341Z,2.77
2016-11-11T00:28:27.353Z,2.77
2016-11-11T00:29:27.368Z,2.75
2016-11-11T00:30:27.396Z,2.85
2016-11-11T00:31:27.399Z,2.87
2016-11-11T00:32:27.420Z,2.84
2016-11-11T00:33:27.430Z,2.92
2016-11-11T00:34:27.449Z,2.95
2016-11-11T00:35:27.467Z,2.97
2016-11-11T00:36:27.483Z,3.03
2016-11-11T00:37:27.501Z,2.87
2016-11-11T00:39:27.569Z,2.81
2016-11-11T00:40:27.550Z,2.85
2016-11-11T00:41:27.565Z,2.79
2016-11-11T00:42:42.492Z,2.85
2016-11-11T00:43:27.597Z,2.75
2016-11-11T00:44:27.619Z,2.75
2016-11-11T00:45:42.548Z,2.79
2016-11-11T00:46:27.676Z,2.75
2016-11-11T00:47:27.662Z,2.79
2016-11-11T00:48:42.593Z,2.82
2016-11-11T00:49:27.692Z,2.87
2016-11-11T00:50:27.735Z,2.84
2016-11-11T00:51:27.729Z,2.81
2016-11-11T00:52:42.655Z,2.74
2016-11-11T00:53:27.763Z,2.81
2016-11-11T00:54:27.786Z,2.77
2016-11-11T00:55:27.791Z,2.74
2016-11-11T00:56:28.120Z,2.75
2016-11-11T00:58:27.841Z,2.78
2016-11-11T00:59:27.858Z,2.79
2016-11-11T01:00:27.872Z,2.79
2016-11-11T01:01:27.884Z,2.75
2016-11-11T01:02:42.823Z,2.81
2016-11-11T01:03:27.927Z,2.81
2016-11-11T01:04:27.939Z,2.92
2016-11-11T01:05:27.952Z,2.87
2016-11-11T01:06:27.975Z,2.84
2016-11-11T01:07:27.996Z,2.89
2016-11-11T01:08:27.999Z,2.71
2016-11-11T01:10:28.035Z,2.78
2016-11-11T01:11:28.058Z,2.78
2016-11-11T01:12:28.070Z,2.78
2016-11-11T01:13:28.087Z,2.69
2016-11-11T01:14:28.102Z,2.78
2016-11-11T01:16:28.129Z,2.71
2016-11-11T01:17:28.155Z,2.78
2016-11-11T01:18:28.170Z,2.82
2016-11-11T01:19:28.210Z,2.85
2016-11-11T01:20:28.200Z,2.84
2016-11-11T01:21:28.219Z,2.84
2016-11-11T01:22:28.227Z,2.79
2016-11-11T01:23:28.248Z,2.74
2016-11-11T01:25:28.277Z,2.84
2016-11-11T01:26:28.295Z,2.9
2016-11-11T01:27:28.314Z,2.93
2016-11-11T01:28:28.331Z,2.75
2016-11-11T01:29:43.261Z,2.75
2016-11-11T01:30:28.360Z,2.69
2016-11-11T01:31:28.375Z,2.74
2016-11-11T01:32:28.390Z,2.6
2016-11-11T01:33:28.409Z,2.66
2016-11-11T01:34:28.426Z,2.6
2016-11-11T01:35:28.442Z,2.64
2016-11-11T01:36:28.612Z,2.71
2016-11-11T01:37:28.473Z,2.69
2016-11-11T01:38:28.491Z,2.79
2016-11-11T01:39:43.418Z,2.72
2016-11-11T01:40:28.520Z,2.78
2016-11-11T01:41:28.540Z,2.77
2016-11-11T01:42:28.553Z,2.75
2016-11-11T01:44:28.585Z,2.84
2016-11-11T01:45:43.521Z,2.79
2016-11-11T01:46:28.622Z,2.77
2016-11-11T01:47:28.639Z,2.84
2016-11-11T01:48:28.652Z,2.74
2016-11-11T01:49:28.671Z,2.81
2016-11-11T01:50:28.682Z,2.82
2016-11-11T01:51:43.618Z,2.82
2016-11-11T01:52:43.630Z,2.77
2016-11-11T01:53:28.736Z,2.78
2016-11-11T01:54:28.744Z,2.78
2016-11-11T01:55:28.765Z,2.71
2016-11-11T01:56:28.813Z,2.81
2016-11-11T01:57:28.799Z,2.81
2016-11-11T01:58:28.816Z,2.81
2016-11-11T01:59:28.826Z,2.82
2016-11-11T02:00:28.843Z,2.74
2016-11-11T02:02:28.879Z,2.81
2016-11-11T02:03:28.897Z,2.79
2016-11-11T02:04:28.908Z,2.75
2016-11-11T02:05:43.843Z,2.71
2016-11-11T02:06:28.943Z,2.67
2016-11-11T02:07:28.994Z,2.67
2016-11-11T02:08:28.976Z,2.72
2016-11-11T02:09:29.040Z,2.77
2016-11-11T02:10:29.011Z,2.79
2016-11-11T02:11:29.025Z,2.79
2016-11-11T02:12:29.034Z,2.72
2016-11-11T02:13:29.334Z,2.78
2016-11-11T02:14:29.069Z,2.82
2016-11-11T02:15:29.090Z,2.69
2016-11-11T02:16:29.099Z,2.84
2016-11-11T02:17:44.135Z,2.77
2016-11-11T02:18:29.140Z,2.74
2016-11-11T02:19:29.154Z,2.74
2016-11-11T02:20:29.165Z,2.82
2016-11-11T02:21:29.492Z,2.82
2016-11-11T02:22:29.206Z,2.75
2016-11-11T02:23:29.215Z,2.74
2016-11-11T02:24:29.244Z,2.75
2016-11-11T02:25:29.247Z,2.72
2016-11-11T02:26:29.273Z,2.82
2016-11-11T02:27:29.278Z,2.74
2016-11-11T02:28:29.302Z,2.78
2016-11-11T02:29:29.317Z,2.74
2016-11-11T02:30:29.327Z,2.75
2016-11-11T02:31:29.348Z,2.75
2016-11-11T02:32:44.275Z,2.74
2016-11-11T02:33:29.382Z,2.69
2016-11-11T02:34:29.920Z,2.72
2016-11-11T02:36:29.431Z,2.69
2016-11-11T02:37:29.443Z,2.69
2016-11-11T02:38:44.373Z,2.66
2016-11-11T02:39:44.391Z,2.69
2016-11-11T02:40:44.404Z,2.66
2016-11-11T02:41:29.510Z,2.81
2016-11-11T02:42:29.553Z,2.66
2016-11-11T02:43:29.537Z,2.77
2016-11-11T02:44:29.559Z,2.79
2016-11-11T02:45:29.573Z,2.78
2016-11-11T02:46:29.587Z,2.75
2016-11-11T02:47:29.609Z,2.81
2016-11-11T02:48:29.621Z,2.82
2016-11-11T02:49:29.636Z,2.79
2016-11-11T02:50:29.653Z,2.89
2016-11-11T02:51:29.675Z,2.95
2016-11-11T02:52:29.689Z,2.78
2016-11-11T02:53:44.617Z,2.85
2016-11-11T02:54:29.720Z,2.92
2016-11-11T02:55:29.732Z,2.9
2016-11-11T02:56:29.746Z,2.87
2016-11-11T02:57:29.765Z,2.9
2016-11-11T02:59:29.799Z,2.89
2016-11-11T03:01:29.828Z,2.87
2016-11-11T03:03:29.862Z,2.82
2016-11-11T03:05:29.897Z,2.66
2016-11-11T03:06:29.912Z,2.66
2016-11-11T03:07:29.930Z,2.67
2016-11-11T03:08:29.942Z,2.74
2016-11-11T03:09:29.960Z,2.71
2016-11-11T03:10:29.972Z,2.84
2016-11-11T03:11:29.991Z,2.79
2016-11-11T03:12:30.010Z,2.77
2016-11-11T03:13:30.024Z,2.78
2016-11-11T03:14:44.950Z,2.78
2016-11-11T03:15:30.061Z,2.81
2016-11-11T03:16:30.072Z,2.78
2016-11-11T03:17:30.087Z,2.78
2016-11-11T03:18:30.100Z,2.75
2016-11-11T03:19:30.155Z,2.79
2016-11-11T03:20:45.055Z,2.74
2016-11-11T03:21:30.154Z,2.71
2016-11-11T03:22:30.172Z,2.74
2016-11-11T03:23:30.187Z,2.78
2016-11-11T03:24:30.203Z,2.77
2016-11-11T03:25:30.218Z,2.82
2016-11-11T03:26:30.229Z,2.78
2016-11-11T03:27:30.251Z,2.78
2016-11-11T03:28:30.267Z,2.78
2016-11-11T03:29:30.283Z,2.81
2016-11-11T03:30:30.299Z,2.64
2016-11-11T03:31:30.317Z,2.66
2016-11-11T03:32:30.335Z,2.72
2016-11-11T03:33:30.353Z,2.67
2016-11-11T03:34:30.368Z,2.72
2016-11-11T03:35:30.731Z,2.64
2016-11-11T03:36:45.312Z,2.82
2016-11-11T03:37:30.417Z,2.77
2016-11-11T03:38:30.462Z,2.82
2016-11-11T03:39:30.443Z,2.78
2016-11-11T03:40:30.788Z,2.78
2016-11-11T03:41:30.475Z,2.85
2016-11-11T03:42:30.492Z,2.81
2016-11-11T03:43:30.814Z,2.85
2016-11-11T03:44:30.527Z,2.87
2016-11-11T03:45:30.541Z,2.79
2016-11-11T03:46:30.557Z,2.77
2016-11-11T03:47:30.573Z,2.75
2016-11-11T03:48:30.588Z,2.78
2016-11-11T03:50:30.662Z,2.74
2016-11-11T03:51:30.641Z,2.69
2016-11-11T03:52:45.567Z,2.72
2016-11-11T03:54:30.685Z,2.61
2016-11-11T03:55:30.703Z,2.69
2016-11-11T03:56:30.722Z,2.66
2016-11-11T03:57:45.649Z,2.71
2016-11-11T03:58:30.756Z,2.77
2016-11-11T03:59:30.773Z,2.74
2016-11-11T04:00:30.785Z,2.72
2016-11-11T04:01:30.799Z,2.71
2016-11-11T04:02:30.814Z,2.63
2016-11-11T04:03:30.830Z,2.6
2016-11-11T04:04:30.850Z,2.54
2016-11-11T04:05:30.863Z,2.63
2016-11-11T04:06:30.912Z,2.61
2016-11-11T04:07:45.814Z,2.66
2016-11-11T04:08:30.917Z,2.72
2016-11-11T04:10:30.950Z,2.54
2016-11-11T04:11:30.959Z,2.54
2016-11-11T04:12:45.894Z,2.52
2016-11-11T04:13:31.002Z,2.53
2016-11-11T04:14:31.008Z,2.52
2016-11-11T04:15:31.029Z,2.42
2016-11-11T04:16:31.044Z,2.53
2016-11-11T04:17:31.057Z,2.61
2016-11-11T04:18:31.075Z,2.57
2016-11-11T04:19:31.089Z,2.54
2016-11-11T04:20:31.105Z,2.57
2016-11-11T04:21:31.120Z,2.43
2016-11-11T04:22:31.167Z,2.45
2016-11-11T04:23:31.159Z,2.48
2016-11-11T04:24:31.167Z,2.53
2016-11-11T04:25:31.182Z,2.53
2016-11-11T04:26:46.118Z,2.46
2016-11-11T04:27:31.217Z,2.52
2016-11-11T04:28:46.148Z,2.48
2016-11-11T04:29:31.247Z,2.57
2016-11-11T04:30:31.265Z,2.56
2016-11-11T04:31:31.285Z,2.59
2016-11-11T04:32:31.301Z,2.56
2016-11-11T04:33:31.310Z,2.61
2016-11-11T04:34:31.329Z,2.48
2016-11-11T04:36:31.367Z,2.46
2016-11-11T04:37:31.378Z,2.38
2016-11-11T04:38:31.393Z,2.46
2016-11-11T04:39:46.320Z,2.48
2016-11-11T04:40:31.431Z,2.39
2016-11-11T04:41:31.441Z,2.31
2016-11-11T04:42:31.456Z,2.38
2016-11-11T04:43:31.474Z,2.36
2016-11-11T04:44:31.491Z,2.31
2016-11-11T04:45:31.503Z,2.31
2016-11-11T04:46:31.518Z,2.25
2016-11-11T04:47:31.536Z,2.36
2016-11-11T04:48:31.551Z,2.3
2016-11-11T04:50:31.588Z,2.38
2016-11-11T04:51:31.600Z,2.31
2016-11-11T04:52:31.620Z,2.38
2016-11-11T04:53:31.630Z,2.35
2016-11-11T04:55:46.577Z,2.35
2016-11-11T04:56:31.682Z,2.34
2016-11-11T04:58:31.718Z,2.41
2016-11-11T04:59:31.725Z,2.35
2016-11-11T05:00:31.740Z,2.35
2016-11-11T05:01:31.762Z,2.2
2016-11-11T05:02:31.775Z,2.2
2016-11-11T05:03:31.794Z,2.21
2016-11-11T05:04:31.804Z,2.16
2016-11-11T05:05:31.823Z,2.24
2016-11-11T05:06:31.837Z,2.24
2016-11-11T05:07:31.854Z,2.3
2016-11-11T05:08:31.901Z,2.3
2016-11-11T05:09:31.890Z,2.3
2016-11-11T05:11:46.839Z,2.16
2016-11-11T05:12:32.238Z,2.18
2016-11-11T05:13:31.946Z,2.18
2016-11-11T05:14:31.962Z,2.3
2016-11-11T05:15:46.898Z,2.27
2016-11-11T05:16:31.996Z,2.25
2016-11-11T05:17:46.927Z,2.24
2016-11-11T05:18:32.057Z,2.21
2016-11-11T05:19:32.047Z,2.24
2016-11-11T05:20:33.411Z,2.14
2016-11-11T05:21:32.077Z,2.31
2016-11-11T05:22:32.091Z,2.36
2016-11-11T05:23:32.106Z,2.31
2016-11-11T05:24:32.122Z,2.35
2016-11-11T05:26:32.166Z,2.36
2016-11-11T05:27:47.083Z,2.3
2016-11-11T05:28:32.192Z,2.27
2016-11-11T05:29:32.203Z,2.31
2016-11-11T05:30:32.221Z,2.36
2016-11-11T05:31:32.235Z,2.3
2016-11-11T05:32:32.258Z,2.24
2016-11-11T05:33:32.265Z,2.27
2016-11-11T05:34:47.197Z,2.17
2016-11-11T05:35:32.300Z,2.18
2016-11-11T05:36:32.314Z,2.03
2016-11-11T05:37:32.334Z,1.95
2016-11-11T05:38:32.348Z,1.95
2016-11-11T05:39:32.361Z,1.95
2016-11-11T05:40:32.380Z,1.99
2016-11-11T05:41:32.394Z,2.02
2016-11-11T05:42:47.323Z,2
2016-11-11T05:43:32.422Z,2.12
2016-11-11T05:44:32.441Z,2.05
2016-11-11T05:45:32.459Z,2.02
2016-11-11T05:46:32.474Z,2.05
2016-11-11T05:47:32.493Z,2.06
2016-11-11T05:48:32.526Z,2.1
2016-11-11T05:49:32.525Z,2.02
2016-11-11T05:50:32.539Z,1.86
2016-11-11T05:51:32.554Z,1.84
2016-11-11T05:52:32.570Z,1.81
2016-11-11T05:53:32.585Z,1.77
2016-11-11T05:54:32.606Z,1.84
2016-11-11T05:55:32.617Z,1.83
2016-11-11T05:56:32.631Z,1.84
2016-11-11T05:57:32.651Z,1.77
2016-11-11T05:58:32.662Z,1.77
2016-11-11T05:59:32.682Z,1.72
2016-11-11T06:00:32.724Z,1.8
2016-11-11T06:01:32.706Z,1.91
2016-11-11T06:02:32.726Z,2.05
2016-11-11T06:03:32.746Z,2.05
2016-11-11T06:04:32.753Z,1.99
2016-11-11T06:05:47.686Z,1.81
2016-11-11T06:06:32.788Z,1.81
2016-11-11T06:07:47.716Z,1.98
2016-11-11T06:08:32.821Z,1.88
2016-11-11T06:10:32.851Z,2.05
2016-11-11T06:11:32.867Z,2.18
2016-11-11T06:12:32.879Z,2.02
2016-11-11T06:13:32.893Z,2.07
2016-11-11T06:14:47.825Z,2.16
2016-11-11T06:15:32.928Z,2.2
2016-11-11T06:17:32.960Z,2.21
2016-11-11T06:18:32.974Z,2.1
2016-11-11T06:19:32.989Z,2.1
2016-11-11T06:20:33.007Z,2.09
2016-11-11T06:21:33.021Z,2.1
2016-11-11T06:22:33.038Z,2.1
2016-11-11T06:24:33.223Z,2.17
2016-11-11T06:25:33.084Z,2.25
2016-11-11T06:26:33.474Z,2.06
2016-11-11T06:27:33.111Z,2.1
2016-11-11T06:28:33.129Z,2.1
2016-11-11T06:29:33.149Z,2.03
2016-11-11T06:30:48.075Z,2
2016-11-11T06:31:33.183Z,2.03
2016-11-11T06:32:33.203Z,2.03
2016-11-11T06:33:33.209Z,2.12
2016-11-11T06:34:33.224Z,2.07
2016-11-11T06:35:33.239Z,2.05
2016-11-11T06:36:33.560Z,2.06
2016-11-11T06:37:33.272Z,2.02
2016-11-11T06:38:33.298Z,2.03
2016-11-11T06:39:33.303Z,2
2016-11-11T06:40:33.317Z,2.16
2016-11-11T06:41:33.335Z,2.1
2016-11-11T06:42:33.347Z,2.02
2016-11-11T06:43:33.367Z,2.02
2016-11-11T06:44:33.383Z,1.9
2016-11-11T06:45:33.710Z,2.09
2016-11-11T06:46:48.328Z,2
2016-11-11T06:47:33.432Z,2.18
2016-11-11T06:48:33.461Z,1.98
2016-11-11T06:49:33.460Z,2
2016-11-11T06:50:33.477Z,1.91
2016-11-11T06:51:33.491Z,2.05
2016-11-11T06:52:34.911Z,2.14
2016-11-11T06:53:33.529Z,2.16
2016-11-11T06:54:33.539Z,2.09
2016-11-11T06:55:33.552Z,2.09
2016-11-11T06:56:33.572Z,2.1
2016-11-11T06:59:33.618Z,2.09
2016-11-11T07:00:33.632Z,2.06
2016-11-11T07:01:33.648Z,2.03
2016-11-11T07:03:33.688Z,2.02
2016-11-11T07:04:33.696Z,2.06
2016-11-11T07:05:33.718Z,2.03
2016-11-11T07:06:33.730Z,2.03
2016-11-11T07:07:48.660Z,2.02
2016-11-11T07:08:33.759Z,2.02
2016-11-11T07:09:33.773Z,1.95
2016-11-11T07:10:33.795Z,1.91
2016-11-11T07:11:33.811Z,1.9
2016-11-11T07:12:33.822Z,1.91
2016-11-11T07:13:33.836Z,1.84
2016-11-11T07:14:33.855Z,1.79
2016-11-11T07:15:33.874Z,1.6
2016-11-11T07:17:48.852Z,1.5
2016-11-11T07:18:33.912Z,1.58
2016-11-11T07:19:33.934Z,1.58
2016-11-11T07:20:33.945Z,1.62
2016-11-11T07:21:34.266Z,1.63
2016-11-11T07:22:33.975Z,1.63
2016-11-11T07:23:33.998Z,1.7
2016-11-11T07:24:34.311Z,1.69
2016-11-11T07:25:34.028Z,1.79
2016-11-11T07:26:34.042Z,1.73
2016-11-11T07:27:34.058Z,1.88
2016-11-11T07:28:34.076Z,1.8
2016-11-11T07:29:34.089Z,1.98
2016-11-11T07:30:34.111Z,1.93
2016-11-11T07:31:34.121Z,1.81
2016-11-11T07:32:34.440Z,1.84
2016-11-11T07:33:34.152Z,1.77
2016-11-11T07:34:34.163Z,1.86
2016-11-11T07:35:34.183Z,2.02
2016-11-11T07:36:34.198Z,1.81
2016-11-11T07:37:34.211Z,1.63
2016-11-11T07:38:34.480Z,1.73
2016-11-11T07:39:34.245Z,1.54
2016-11-11T07:40:34.276Z,1.58
2016-11-11T07:41:34.273Z,1.47
2016-11-11T07:42:34.293Z,1.54
2016-11-11T07:43:34.305Z,1.45
2016-11-11T07:44:34.322Z,1.51
2016-11-11T07:45:34.336Z,1.44
2016-11-11T07:46:34.352Z,1.54
2016-11-11T07:47:34.366Z,1.69
2016-11-11T07:48:34.380Z,1.72
2016-11-11T07:49:49.309Z,1.8
2016-11-11T07:50:34.418Z,1.77
2016-11-11T07:51:35.082Z,1.77
2016-11-11T07:52:34.444Z,1.86
2016-11-11T07:53:34.459Z,1.9
2016-11-11T07:54:34.575Z,1.84
2016-11-11T07:55:34.532Z,1.65
2016-11-11T07:56:34.551Z,1.54
2016-11-11T07:57:34.524Z,1.69
2016-11-11T07:58:34.539Z,1.6
2016-11-11T07:59:49.463Z,1.6
2016-11-11T08:00:34.568Z,1.76
2016-11-11T08:01:34.589Z,1.66
2016-11-11T08:02:34.600Z,1.79
2016-11-11T08:03:34.613Z,1.91
2016-11-11T08:04:49.550Z,1.95
2016-11-11T08:05:49.556Z,2.05
2016-11-11T08:06:34.656Z,2.17
2016-11-11T08:07:34.679Z,2.23
2016-11-11T08:08:34.690Z,2.39
2016-11-11T08:09:34.705Z,2.42
2016-11-11T08:10:34.744Z,2.41
2016-11-11T08:11:35.072Z,2.45
2016-11-11T08:12:34.807Z,2.42
2016-11-11T08:13:49.683Z,2.23
2016-11-11T08:14:34.783Z,2.23
2016-11-11T08:15:34.804Z,2.28
2016-11-11T08:16:34.815Z,2.3
2016-11-11T08:17:34.835Z,2.18
2016-11-11T08:19:34.868Z,2.06
2016-11-11T08:20:34.877Z,2.07
2016-11-11T08:21:49.806Z,2.06
2016-11-11T08:22:35.160Z,1.98
2016-11-11T08:23:34.924Z,1.95
2016-11-11T08:24:34.941Z,1.87
2016-11-11T08:25:34.958Z,2.02
2016-11-11T08:26:49.890Z,1.98
2016-11-11T08:27:34.994Z,2
2016-11-11T08:28:35.005Z,2.05
2016-11-11T08:29:35.023Z,2.14
2016-11-11T08:30:35.039Z,2.06
2016-11-11T08:31:49.963Z,2.17
2016-11-11T08:32:35.064Z,2.28
2016-11-11T08:33:35.119Z,2.31
2016-11-11T08:34:35.101Z,2.3
2016-11-11T08:35:35.118Z,2.42
2016-11-11T08:37:50.064Z,2.46
2016-11-11T08:38:35.157Z,2.54
2016-11-11T08:39:35.487Z,2.59
2016-11-11T08:40:35.197Z,2.54
2016-11-11T08:41:35.210Z,2.69
2016-11-11T08:42:35.227Z,2.54
2016-11-11T08:43:35.242Z,2.54
2016-11-11T08:44:35.252Z,2.57
2016-11-11T08:45:35.271Z,2.53
2016-11-11T08:46:35.292Z,2.57
2016-11-11T08:47:35.308Z,2.61
2016-11-11T08:48:35.318Z,2.77
2016-11-11T08:49:35.333Z,2.87
2016-11-11T08:50:35.352Z,2.92
2016-11-11T08:52:50.607Z,3.18
2016-11-11T08:53:35.402Z,3.13
2016-11-11T08:54:35.420Z,3.21
2016-11-11T08:55:35.436Z,3.13
2016-11-11T08:56:35.449Z,2.99
2016-11-11T08:57:35.467Z,2.99
2016-11-11T08:58:35.487Z,3.03
2016-11-11T08:59:35.494Z,3.11
2016-11-11T09:01:35.537Z,3.2
2016-11-11T09:03:35.765Z,3.32
2016-11-11T09:04:35.583Z,3.48
2016-11-11T09:05:35.594Z,3.4
2016-11-11T09:06:35.649Z,3.39
2016-11-11T09:07:35.629Z,3.33
2016-11-11T09:08:35.645Z,3.39
2016-11-11T09:09:35.663Z,3.43
2016-11-11T09:10:35.677Z,3.47
2016-11-11T09:11:35.696Z,3.47
2016-11-11T09:12:36.162Z,3.47
2016-11-11T09:13:35.725Z,3.43
2016-11-11T09:14:50.657Z,3.36
2016-11-11T09:16:35.774Z,3.51
2016-11-11T09:17:50.702Z,3.47
2016-11-11T09:18:35.802Z,3.32
2016-11-11T09:20:35.836Z,3.36
2016-11-11T09:21:35.853Z,3.18
2016-11-11T09:23:35.889Z,3.06
2016-11-11T09:24:50.818Z,3.06
2016-11-11T09:25:35.924Z,2.97
2016-11-11T09:26:35.938Z,2.93
2016-11-11T09:28:35.970Z,2.92
2016-11-11T09:30:36.006Z,2.92
2016-11-11T09:31:36.075Z,2.9
2016-11-11T09:32:36.035Z,3.05
2016-11-11T09:33:36.054Z,3.05
2016-11-11T09:34:36.077Z,3.08
2016-11-11T09:35:36.084Z,3.18
2016-11-11T09:36:36.115Z,3.05
2016-11-11T09:37:36.126Z,3.13
2016-11-11T09:38:36.134Z,3.08
2016-11-11T09:39:36.400Z,3.06
2016-11-11T09:40:51.085Z,3
2016-11-11T09:41:51.104Z,3.13
2016-11-11T09:42:36.201Z,3.11
2016-11-11T09:43:36.216Z,3.29
2016-11-11T09:44:51.150Z,3.33
2016-11-11T09:45:36.251Z,3.39
2016-11-11T09:46:36.269Z,3.35
2016-11-11T09:47:36.283Z,3.36
2016-11-11T09:48:36.300Z,3.18
2016-11-11T09:49:36.319Z,3.2
2016-11-11T09:50:36.715Z,3.14
2016-11-11T09:51:36.354Z,3.18
2016-11-11T09:52:36.360Z,3.05
2016-11-11T09:53:36.379Z,3.31
2016-11-11T09:54:36.397Z,3.4
2016-11-11T09:55:36.411Z,3.43
2016-11-11T09:56:51.347Z,3.36
2016-11-11T09:57:36.799Z,3.24
2016-11-11T09:58:36.514Z,3.26
2016-11-11T09:59:36.477Z,3.23
2016-11-11T10:00:36.799Z,3.36
2016-11-11T10:01:36.513Z,3.54
2016-11-11T10:02:36.527Z,3.62
2016-11-11T10:03:36.544Z,3.78
2016-11-11T10:04:36.562Z,3.87
2016-11-11T10:05:51.491Z,3.97
2016-11-11T10:06:36.598Z,4
2016-11-11T10:07:36.615Z,4.02
2016-11-11T10:08:36.629Z,4.04
2016-11-11T10:09:36.651Z,3.84
2016-11-11T10:10:36.665Z,3.68
2016-11-11T10:11:36.680Z,3.66
2016-11-11T10:12:51.607Z,3.52
2016-11-11T10:13:36.713Z,3.61
2016-11-11T10:14:36.745Z,3.72
2016-11-11T10:15:36.745Z,3.66
2016-11-11T10:16:36.760Z,3.55
2016-11-11T10:17:36.777Z,3.73
2016-11-11T10:18:36.795Z,3.72
2016-11-11T10:19:36.815Z,3.76
2016-11-11T10:20:36.878Z,3.73
2016-11-11T10:21:51.759Z,3.87
2016-11-11T10:22:36.870Z,3.78
2016-11-11T10:23:36.882Z,3.58
2016-11-11T10:24:36.896Z,3.51
2016-11-11T10:25:37.224Z,3.5
2016-11-11T10:26:36.928Z,3.4
2016-11-11T10:27:51.863Z,3.6
2016-11-11T10:28:36.966Z,3.62
2016-11-11T10:29:51.901Z,3.54
2016-11-11T10:31:37.325Z,3.55
2016-11-11T10:32:51.949Z,3.52
2016-11-11T10:33:51.963Z,3.6
2016-11-11T10:34:51.979Z,3.69
2016-11-11T10:35:51.996Z,3.69
2016-11-11T10:36:37.099Z,3.65
2016-11-11T10:37:37.119Z,3.65
2016-11-11T10:38:37.132Z,3.69
2016-11-11T10:39:37.154Z,3.62
2016-11-11T10:40:37.171Z,3.58
2016-11-11T10:41:37.187Z,3.61
2016-11-11T10:42:37.252Z,3.57
2016-11-11T10:43:37.217Z,3.47
2016-11-11T10:44:37.486Z,3.58
2016-11-11T10:45:37.253Z,3.61
2016-11-11T10:46:37.270Z,3.57
2016-11-11T10:47:37.279Z,3.55
2016-11-11T10:48:37.299Z,3.48
2016-11-11T10:49:52.232Z,3.5
2016-11-11T10:50:37.338Z,3.65
2016-11-11T10:51:37.355Z,3.6
2016-11-11T10:52:37.370Z,3.57
2016-11-11T10:53:37.387Z,3.61
2016-11-11T10:54:37.404Z,3.65
2016-11-11T10:55:37.467Z,3.54
2016-11-11T10:56:37.435Z,3.6
2016-11-11T10:57:37.451Z,3.47
2016-11-11T11:00:37.501Z,3.58
2016-11-11T11:02:37.540Z,3.65
2016-11-11T11:03:37.559Z,3.7
2016-11-11T11:04:37.570Z,3.61
2016-11-11T11:05:37.592Z,3.75
2016-11-11T11:06:37.602Z,3.79
2016-11-11T11:07:52.532Z,3.93
2016-11-11T11:08:37.637Z,3.93
2016-11-11T11:09:37.652Z,3.88
2016-11-11T11:10:37.687Z,3.93
2016-11-11T11:11:37.687Z,3.91
2016-11-11T11:12:37.703Z,4.04
2016-11-11T11:13:37.721Z,4.04
2016-11-11T11:14:37.732Z,4.05
2016-11-11T11:15:52.669Z,4.05
2016-11-11T11:16:37.770Z,3.97
2016-11-11T11:17:37.792Z,4.12
2016-11-11T11:18:37.806Z,4.26
2016-11-11T11:19:37.824Z,4.42
2016-11-11T11:20:37.836Z,4.41
2016-11-11T11:21:52.772Z,4.3
2016-11-11T11:22:37.874Z,4.36
2016-11-11T11:23:52.805Z,4.59
2016-11-11T11:24:37.932Z,4.62
2016-11-11T11:26:37.945Z,4.52
2016-11-11T11:27:52.886Z,4.33
2016-11-11T11:28:38.290Z,4.26
2016-11-11T11:29:37.998Z,4.23
2016-11-11T11:30:52.984Z,4.15
2016-11-11T11:31:52.946Z,3.98
2016-11-11T11:32:38.048Z,4
2016-11-11T11:33:38.066Z,3.93
2016-11-11T11:34:38.083Z,4
2016-11-11T11:35:38.110Z,4.05
2016-11-11T11:36:38.146Z,4.15
2016-11-11T11:37:38.452Z,4.23
2016-11-11T11:38:38.155Z,4.11
2016-11-11T11:39:38.179Z,4.08
2016-11-11T11:40:53.099Z,4.05
2016-11-11T11:41:38.216Z,4.09
2016-11-11T11:42:38.225Z,4.24
2016-11-11T11:43:39.087Z,4.44
2016-11-11T11:44:38.262Z,4.41
2016-11-11T11:45:38.278Z,4.34
2016-11-11T11:46:38.341Z,4.22
2016-11-11T11:47:53.222Z,4
2016-11-11T11:48:38.332Z,4.05
2016-11-11T11:49:38.345Z,4.23
2016-11-11T11:50:38.363Z,4.37
2016-11-11T11:51:38.384Z,4.4
2016-11-11T11:52:38.396Z,4.45
2016-11-11T11:53:38.413Z,4.47
2016-11-11T11:54:38.427Z,4.23
2016-11-11T11:55:53.362Z,3.88
2016-11-11T11:56:38.466Z,3.83
2016-11-11T11:57:38.582Z,3.79
2016-11-11T11:58:38.503Z,3.87
2016-11-11T11:59:38.523Z,4.04
2016-11-11T12:00:38.539Z,4.18
2016-11-11T12:01:38.608Z,4.2
2016-11-11T12:03:38.639Z,4.37
2016-11-11T12:04:38.608Z,4.26
2016-11-11T12:05:38.624Z,4.36
2016-11-11T12:06:38.645Z,4.33
2016-11-11T12:07:53.576Z,4.4
2016-11-11T12:08:38.686Z,4.09
2016-11-11T12:09:38.697Z,4.04
2016-11-11T12:10:38.713Z,4
2016-11-11T12:11:38.787Z,3.98
2016-11-11T12:13:38.764Z,4.02
2016-11-11T12:15:38.796Z,3.91
2016-11-11T12:17:39.142Z,3.86
2016-11-11T12:18:38.856Z,3.84
2016-11-11T12:19:38.867Z,3.83
2016-11-11T12:20:38.885Z,3.87
2016-11-11T12:21:38.905Z,3.88
2016-11-11T12:22:38.914Z,3.87
2016-11-11T12:23:38.938Z,3.83
2016-11-11T12:24:38.956Z,3.75
2016-11-11T12:25:38.981Z,3.72
2016-11-11T12:26:38.994Z,3.75
2016-11-11T12:27:39.014Z,3.83
2016-11-11T12:28:39.022Z,3.79
2016-11-11T12:29:39.054Z,3.72
2016-11-11T12:30:39.244Z,3.69
2016-11-11T12:31:39.074Z,3.57
2016-11-11T12:32:39.088Z,3.62
2016-11-11T12:33:39.111Z,3.73
2016-11-11T12:35:39.147Z,3.8
2016-11-11T12:36:39.160Z,3.91
2016-11-11T12:37:39.186Z,3.98
2016-11-11T12:38:39.197Z,4.11
2016-11-11T12:39:39.962Z,4.3
2016-11-11T12:40:54.145Z,4.27
2016-11-11T12:41:39.244Z,4.33
2016-11-11T12:42:39.267Z,4.16
2016-11-11T12:43:39.285Z,4.18
2016-11-11T12:45:39.315Z,4.34
2016-11-11T12:46:39.330Z,4.16
2016-11-11T12:47:39.361Z,4.04
2016-11-11T12:49:39.392Z,4
2016-11-11T12:50:54.627Z,3.91
2016-11-11T12:51:39.732Z,3.93
2016-11-11T12:52:39.435Z,4.04
2016-11-11T12:53:39.459Z,4.06
2016-11-11T12:54:54.436Z,4.02
2016-11-11T12:55:39.492Z,4.2
2016-11-11T12:56:39.508Z,4.27
2016-11-11T12:57:39.525Z,4.3
2016-11-11T12:58:39.544Z,4.27
2016-11-11T12:59:54.471Z,4.22
2016-11-11T13:00:40.324Z,4.08
2016-11-11T13:01:39.591Z,4
2016-11-11T13:02:39.607Z,3.94
2016-11-11T13:03:39.625Z,3.93
2016-11-11T13:04:39.641Z,3.91
2016-11-11T13:05:39.658Z,3.9
2016-11-11T13:06:54.594Z,3.87
2016-11-11T13:08:39.710Z,3.91
2016-11-11T13:09:39.733Z,3.93
2016-11-11T13:10:39.747Z,4.09
2016-11-11T13:11:39.762Z,4.18
2016-11-11T13:12:39.778Z,4.23
2016-11-11T13:13:39.796Z,4.23
2016-11-11T13:14:39.813Z,4.16
2016-11-11T13:15:39.834Z,4.18
2016-11-11T13:16:39.881Z,4.14
2016-11-11T13:18:39.883Z,4.05
2016-11-11T13:20:39.914Z,4.06
2016-11-11T13:21:39.932Z,3.97
2016-11-11T13:22:54.868Z,3.9
2016-11-11T13:23:39.972Z,3.88
2016-11-11T13:24:39.991Z,3.93
2016-11-11T13:25:40.004Z,3.93
2016-11-11T13:26:40.020Z,3.96
2016-11-11T13:27:40.401Z,4.04
2016-11-11T13:28:40.055Z,4.11
2016-11-11T13:29:40.077Z,4.27
2016-11-11T13:30:40.089Z,4.36
2016-11-11T13:31:40.606Z,4.3
2016-11-11T13:32:40.122Z,4.09
2016-11-11T13:33:40.146Z,4.16
2016-11-11T13:34:40.161Z,4.15
2016-11-11T13:37:55.131Z,3.9
2016-11-11T13:38:40.225Z,3.91
2016-11-11T13:40:40.263Z,3.83
2016-11-11T13:41:40.277Z,3.72
2016-11-11T13:42:40.295Z,3.69
2016-11-11T13:43:55.227Z,3.58
2016-11-11T13:44:40.332Z,3.58
2016-11-11T13:45:40.345Z,3.66
2016-11-11T13:46:40.371Z,3.6
2016-11-11T13:47:40.378Z,3.54
2016-11-11T13:48:40.394Z,3.51
2016-11-11T13:49:40.415Z,3.47
2016-11-11T13:50:40.893Z,3.48
2016-11-11T13:51:40.451Z,3.51
2016-11-11T13:52:40.462Z,3.42
2016-11-11T13:53:40.488Z,3.36
2016-11-11T13:54:40.497Z,3.42
2016-11-11T13:55:40.890Z,3.39
2016-11-11T13:56:40.540Z,3.36
2016-11-11T13:57:40.549Z,3.32
2016-11-11T13:58:40.567Z,3.33
2016-11-11T13:59:40.584Z,3.31
2016-11-11T14:00:40.601Z,3.4
2016-11-11T14:01:40.620Z,3.29
2016-11-11T14:02:40.632Z,3.35
2016-11-11T14:04:40.667Z,3.31
2016-11-11T14:05:40.688Z,3.36
2016-11-11T14:07:40.717Z,3.33
2016-11-11T14:08:40.734Z,3.32
2016-11-11T14:10:40.773Z,3.31
2016-11-11T14:11:40.785Z,3.36
2016-11-11T14:12:40.807Z,3.29
2016-11-11T14:13:40.820Z,3.33
2016-11-11T14:14:40.836Z,3.24
2016-11-11T14:15:40.853Z,3.2
2016-11-11T14:16:40.875Z,3.26
2016-11-11T14:17:40.886Z,3.21
2016-11-11T14:18:55.818Z,3.29
2016-11-11T14:19:40.925Z,3.23
2016-11-11T14:20:40.938Z,3.18
2016-11-11T14:21:40.952Z,3.23
2016-11-11T14:22:40.969Z,3.26